Time;durP1;ratioP1;P1;durP2;ratioP2;P2;SDS_P1;SDS_P2;PMS_P1;PMS_P2;Temp;Humidity;BMP_temperature;BMP_pressure;BME280_temperature;BME280_humidity;BME280_pressure;Samples;Min_cycle;Max_cycle;Signal;HPM_P1;HPM_P2
2021/12/02 00:01:33;;;;;;;0.70;0.65;;;6.90;88.50;;;;;;4974129;28;20056;-79
2021/12/02 00:04:02;;;;;;;2.95;0.88;;;7.00;88.60;;;;;;5001643;28;20058;-79
2021/12/02 00:06:28;;;;;;;2.25;0.57;;;7.00;88.50;;;;;;4967822;28;20040;-78
2021/12/02 00:08:54;;;;;;;4.80;0.82;;;7.00;88.50;;;;;;4985174;28;20041;-79
2021/12/02 00:11:29;;;;;;;3.38;0.70;;;6.90;88.40;;;;;;4968025;28;20049;-79
2021/12/02 00:13:58;;;;;;;4.40;0.70;;;6.90;88.30;;;;;;4978086;28;20099;-80
2021/12/02 00:22:01;;;;;;;0.70;0.70;;;6.90;89.20;;;;;;5015965;28;20053;-80
2021/12/02 00:24:26;;;;;;;0.85;0.80;;;6.90;88.40;;;;;;4982821;28;20398;-78
2021/12/02 00:26:53;;;;;;;3.90;0.80;;;6.90;88.50;;;;;;4996707;28;20067;-79
2021/12/02 00:29:21;;;;;;;1.67;0.60;;;6.90;88.60;;;;;;4974589;28;20136;-79
2021/12/02 00:31:47;;;;;;;1.25;0.70;;;6.80;88.60;;;;;;4964350;28;20503;-79
2021/12/02 00:34:13;;;;;;;0.82;0.70;;;6.80;88.60;;;;;;5008032;28;20048;-79
2021/12/02 00:36:39;;;;;;;0.95;0.70;;;6.80;88.60;;;;;;4999331;28;20033;-79
2021/12/02 00:39:12;;;;;;;1.15;0.98;;;6.80;88.70;;;;;;4982741;28;20064;-79
2021/12/02 00:41:38;;;;;;;2.83;0.80;;;6.80;88.60;;;;;;4980091;28;20041;-79
2021/12/02 00:44:04;;;;;;;1.95;0.70;;;6.80;88.70;;;;;;4975080;28;20052;-80
2021/12/02 00:46:33;;;;;;;1.20;0.77;;;6.80;88.70;;;;;;4991808;28;20100;-79
2021/12/02 00:49:04;;;;;;;3.35;0.77;;;6.80;88.80;;;;;;4977576;28;20112;-78
2021/12/02 00:51:35;;;;;;;1.83;0.80;;;6.80;88.80;;;;;;4988605;28;20115;-79
2021/12/02 00:54:03;;;;;;;2.03;0.65;;;6.80;88.80;;;;;;5009893;28;20047;-79
2021/12/02 00:56:32;;;;;;;2.78;0.70;;;6.80;88.80;;;;;;4990746;28;20038;-79
2021/12/02 00:58:58;;;;;;;1.52;0.90;;;6.80;88.80;;;;;;4975077;28;20491;-80
2021/12/02 01:01:25;;;;;;;1.63;0.75;;;6.80;88.80;;;;;;5003002;28;20042;-79
2021/12/02 01:03:59;;;;;;;2.42;0.52;;;6.80;88.80;;;;;;4961049;28;20412;-77
2021/12/02 01:06:25;;;;;;;1.50;0.70;;;6.80;88.80;;;;;;4976284;28;20398;-78
2021/12/02 01:08:51;;;;;;;0.95;0.70;;;6.80;88.80;;;;;;4960118;28;20041;-78
2021/12/02 01:11:18;;;;;;;1.52;0.85;;;6.70;88.80;;;;;;4964292;28;20502;-77
2021/12/02 01:13:44;;;;;;;1.80;0.63;;;6.80;88.80;;;;;;4988572;28;20068;-78
2021/12/02 01:16:19;;;;;;;1.50;0.88;;;6.80;88.80;;;;;;4978733;28;20072;-78
2021/12/02 01:18:45;;;;;;;1.38;0.70;;;6.70;88.80;;;;;;4957769;28;20653;-78
2021/12/02 01:21:16;;;;;;;1.90;0.80;;;6.80;88.90;;;;;;4999674;28;20082;-78
2021/12/02 01:23:42;;;;;;;1.00;0.95;;;6.70;88.80;;;;;;4992044;28;20044;-78
2021/12/02 01:26:15;;;;;;;1.40;0.77;;;6.70;88.90;;;;;;4997644;28;20425;-79
2021/12/02 01:28:41;;;;;;;3.45;0.98;;;6.70;89.00;;;;;;4978861;28;20060;-79
2021/12/02 01:31:07;;;;;;;1.92;1.00;;;6.70;89.20;;;;;;4977761;28;20056;-77
2021/12/02 01:33:33;;;;;;;2.83;1.00;;;6.70;89.20;;;;;;5024832;28;20037;-78
2021/12/02 01:36:08;;;;;;;3.22;0.82;;;6.70;89.20;;;;;;4999292;28;20142;-78
2021/12/02 01:38:37;;;;;;;1.42;0.90;;;6.60;90.00;;;;;;4978823;28;20196;-78
2021/12/02 01:41:04;;;;;;;0.75;0.70;;;6.70;89.50;;;;;;4988140;28;20044;-79
2021/12/02 01:43:50;;;;;;;0.80;0.65;;;6.60;89.40;;;;;;4959920;28;20034;-78
2021/12/02 01:46:41;;;;;;;3.35;1.17;;;6.60;89.60;;;;;;4971141;28;20049;-78
2021/12/02 01:49:07;;;;;;;2.47;0.95;;;6.60;89.60;;;;;;4928916;28;20061;-78
2021/12/02 01:51:52;;;;;;;1.98;0.88;;;6.50;89.50;;;;;;4936171;28;20698;-79
2021/12/02 01:54:22;;;;;;;3.70;0.90;;;6.60;89.80;;;;;;4907890;28;20148;-79
2021/12/02 01:56:52;;;;;;;1.77;0.83;;;6.50;89.60;;;;;;4980022;28;20053;-78
2021/12/02 01:59:30;;;;;;;1.90;1.00;;;6.50;89.80;;;;;;4962462;28;20038;-78
2021/12/02 02:01:56;;;;;;;2.35;0.70;;;6.50;89.80;;;;;;4960148;28;20037;-78
2021/12/02 02:04:23;;;;;;;1.42;0.60;;;6.50;89.80;;;;;;4959086;28;20038;-78
2021/12/02 02:07:03;;;;;;;0.65;0.65;;;6.50;90.00;;;;;;4953059;28;20476;-78
2021/12/02 02:09:31;;;;;;;1.15;0.60;;;6.40;89.90;;;;;;4965580;28;20125;-79
2021/12/02 02:11:57;;;;;;;0.50;0.50;;;6.40;89.90;;;;;;4967715;28;20042;-79
2021/12/02 02:14:26;;;;;;;1.38;0.60;;;6.40;90.00;;;;;;4951444;28;20053;-79
2021/12/02 02:16:53;;;;;;;2.35;0.70;;;6.40;90.00;;;;;;4940340;28;20392;-79
2021/12/02 02:19:19;;;;;;;2.85;0.65;;;6.30;90.00;;;;;;4946391;28;20400;-78
2021/12/02 02:21:44;;;;;;;3.25;0.68;;;6.30;90.00;;;;;;4960713;28;20031;-78
2021/12/02 02:24:13;;;;;;;3.55;0.65;;;6.30;90.10;;;;;;4961948;28;22190;-77
2021/12/02 02:26:39;;;;;;;1.20;0.70;;;6.30;90.10;;;;;;4925864;28;20082;-78
2021/12/02 02:29:06;;;;;;;1.48;1.10;;;6.30;90.10;;;;;;4956159;28;20519;-78
2021/12/02 02:31:32;;;;;;;4.18;1.05;;;6.20;90.10;;;;;;5001270;28;20404;-79
2021/12/02 02:34:02;;;;;;;0.50;0.50;;;6.20;90.10;;;;;;4945966;28;20042;-78
2021/12/02 02:36:31;;;;;;;2.00;0.50;;;6.20;90.10;;;;;;4956578;28;20038;-78
2021/12/02 02:38:58;;;;;;;2.75;1.05;;;6.20;90.10;;;;;;4944069;28;20034;-79
2021/12/02 02:41:39;;;;;;;0.52;0.50;;;6.20;90.10;;;;;;4964620;28;20042;-78
2021/12/02 02:44:04;;;;;;;1.10;0.70;;;6.20;90.20;;;;;;4931408;28;20092;-79
2021/12/02 02:46:40;;;;;;;1.90;0.80;;;6.20;90.10;;;;;;4986522;28;20583;-78
2021/12/02 02:49:08;;;;;;;1.40;0.40;;;6.20;90.20;;;;;;4980573;28;20527;-79
2021/12/02 02:51:38;;;;;;;0.98;0.63;;;6.10;90.20;;;;;;4958961;28;20283;-78
2021/12/02 02:54:26;;;;;;;1.40;0.50;;;6.20;90.30;;;;;;4996108;28;20030;-77
2021/12/02 02:56:59;;;;;;;0.40;0.40;;;6.10;90.20;;;;;;4978219;28;20037;-78
2021/12/02 02:59:58;;;;;;;2.97;0.73;;;6.10;90.30;;;;;;4980607;28;20034;-77
2021/12/02 03:02:32;;;;;;;0.70;0.60;;;6.10;90.30;;;;;;4990606;28;20048;-79
2021/12/02 03:07:46;;;;;;;0.77;0.65;;;6.10;90.30;;;;;;4978408;28;20479;-77
2021/12/02 03:10:17;;;;;;;2.17;0.70;;;6.10;90.30;;;;;;4996671;28;20037;-78
2021/12/02 03:17:44;;;;;;;2.47;0.98;;;6.10;90.40;;;;;;4975479;28;20026;-78
2021/12/02 03:20:10;;;;;;;1.08;0.68;;;6.10;90.40;;;;;;4965869;28;20026;-78
2021/12/02 03:22:36;;;;;;;2.10;0.90;;;6.00;90.40;;;;;;4953303;28;20064;-77
2021/12/02 03:25:03;;;;;;;1.38;0.70;;;6.00;90.40;;;;;;4964687;28;20030;-78
2021/12/02 03:27:29;;;;;;;3.80;0.90;;;6.00;90.40;;;;;;4986574;28;20092;-79
2021/12/02 03:29:57;;;;;;;2.90;1.08;;;6.00;90.40;;;;;;4979654;28;20085;-80
2021/12/02 03:32:26;;;;;;;1.75;0.73;;;6.00;90.40;;;;;;4955749;28;20110;-79
2021/12/02 03:34:52;;;;;;;2.58;0.60;;;6.00;90.40;;;;;;4954947;28;20034;-79
2021/12/02 03:37:19;;;;;;;1.05;0.60;;;6.00;90.40;;;;;;4973948;28;20511;-79
2021/12/02 03:39:46;;;;;;;2.80;0.80;;;6.00;90.40;;;;;;4987434;28;20041;-79
2021/12/02 03:42:15;;;;;;;1.48;0.98;;;6.00;90.50;;;;;;4983821;28;20034;-80
2021/12/02 03:44:42;;;;;;;4.30;0.80;;;5.90;90.40;;;;;;4959921;28;20045;-79
2021/12/02 03:47:10;;;;;;;1.90;0.90;;;5.90;90.50;;;;;;4962742;28;20080;-78
2021/12/02 03:49:41;;;;;;;1.42;0.70;;;5.90;90.80;;;;;;4997376;28;20034;-80
2021/12/02 03:52:07;;;;;;;2.78;0.82;;;5.90;90.50;;;;;;4962515;28;20060;-79
2021/12/02 03:54:33;;;;;;;0.88;0.70;;;5.90;90.50;;;;;;4996793;28;20049;-78
2021/12/02 03:56:59;;;;;;;2.92;0.70;;;5.90;90.50;;;;;;4995185;28;20144;-78
2021/12/02 03:59:34;;;;;;;2.20;0.95;;;5.90;90.50;;;;;;4926649;28;20035;-80
2021/12/02 04:02:03;;;;;;;2.22;0.80;;;5.90;90.50;;;;;;4980011;28;20097;-79
2021/12/02 04:04:29;;;;;;;1.67;0.60;;;5.90;90.50;;;;;;4975597;28;20029;-80
2021/12/02 04:06:57;;;;;;;0.93;0.75;;;5.90;90.50;;;;;;4978800;28;20031;-80
2021/12/02 04:09:26;;;;;;;0.40;0.40;;;5.90;90.60;;;;;;4976220;28;20117;-79
2021/12/02 04:14:56;;;;;;;1.25;0.55;;;5.90;90.60;;;;;;4928795;28;20034;-78
2021/12/02 04:17:39;;;;;;;0.68;0.68;;;5.90;90.60;;;;;;4996807;28;20048;-77
2021/12/02 04:20:17;;;;;;;1.48;0.77;;;5.90;90.60;;;;;;4986695;28;20042;-79
2021/12/02 04:22:46;;;;;;;2.28;0.70;;;5.80;90.60;;;;;;4956427;28;20674;-78
2021/12/02 04:25:12;;;;;;;2.65;0.88;;;5.80;90.60;;;;;;4937852;28;20795;-78
2021/12/02 04:27:38;;;;;;;4.00;0.85;;;5.80;90.60;;;;;;4948623;28;20044;-78
2021/12/02 04:30:04;;;;;;;1.98;1.05;;;5.80;90.60;;;;;;4965041;28;20042;-79
2021/12/02 04:32:30;;;;;;;1.70;0.90;;;5.80;90.60;;;;;;4961252;28;20038;-79
2021/12/02 04:34:59;;;;;;;3.28;0.70;;;5.80;90.70;;;;;;4956687;28;20040;-79
2021/12/02 04:37:25;;;;;;;5.47;1.20;;;5.80;90.60;;;;;;4958382;28;20029;-78
2021/12/02 04:39:50;;;;;;;3.42;0.93;;;5.80;90.60;;;;;;4996475;28;20030;-78
2021/12/02 04:42:16;;;;;;;1.50;0.85;;;5.80;90.60;;;;;;4949120;28;20030;-80
2021/12/02 04:44:41;;;;;;;1.90;1.00;;;5.80;90.60;;;;;;4949053;28;20604;-79
2021/12/02 04:47:07;;;;;;;3.38;1.48;;;5.70;90.90;;;;;;4967419;28;20037;-79
2021/12/02 04:49:33;;;;;;;3.78;1.98;;;5.70;90.60;;;;;;4968698;28;20034;-79
2021/12/02 04:51:59;;;;;;;5.15;1.50;;;5.70;90.60;;;;;;4988091;28;20117;-79
2021/12/02 04:54:25;;;;;;;3.03;1.40;;;5.70;90.60;;;;;;4997472;28;20037;-78
2021/12/02 04:56:50;;;;;;;1.75;1.15;;;5.70;90.60;;;;;;4940222;28;20519;-79
2021/12/02 04:59:16;;;;;;;4.32;2.53;;;5.70;90.60;;;;;;4952247;28;20114;-78
2021/12/02 05:01:44;;;;;;;4.93;1.98;;;5.70;90.60;;;;;;4983941;28;20054;-79
2021/12/02 05:04:10;;;;;;;2.40;1.40;;;5.60;90.60;;;;;;4946902;28;20037;-81
2021/12/02 05:06:36;;;;;;;1.52;0.90;;;5.60;90.60;;;;;;4965006;28;20034;-81
2021/12/02 05:09:01;;;;;;;1.92;1.40;;;5.60;90.60;;;;;;4984295;28;20029;-81
2021/12/02 05:11:27;;;;;;;1.50;0.85;;;5.60;90.60;;;;;;4975267;28;20038;-81
2021/12/02 05:13:52;;;;;;;2.47;0.90;;;5.60;90.60;;;;;;4969899;28;20367;-80
2021/12/02 05:16:18;;;;;;;4.05;1.10;;;5.60;90.60;;;;;;4990018;28;20080;-80
2021/12/02 05:18:43;;;;;;;0.80;0.63;;;5.50;90.60;;;;;;4986031;28;20181;-80
2021/12/02 05:21:09;;;;;;;2.05;0.60;;;5.50;90.60;;;;;;4973850;28;20061;-80
2021/12/02 05:23:35;;;;;;;2.70;1.00;;;5.50;90.60;;;;;;4966607;28;20057;-81
2021/12/02 05:26:00;;;;;;;1.98;0.70;;;5.40;90.50;;;;;;4976859;28;20038;-80
2021/12/02 05:28:26;;;;;;;2.20;0.60;;;5.30;90.50;;;;;;4983138;28;20041;-79
2021/12/02 05:30:51;;;;;;;0.40;0.40;;;5.30;90.50;;;;;;4945986;28;20038;-79
2021/12/02 05:33:17;;;;;;;2.45;0.47;;;5.20;90.50;;;;;;4975257;28;20108;-80
2021/12/02 05:35:42;;;;;;;0.30;0.30;;;5.20;90.90;;;;;;4970152;28;20044;-80
2021/12/02 05:38:08;;;;;;;1.33;0.55;;;5.20;90.50;;;;;;4958758;28;20037;-80
2021/12/02 05:40:34;;;;;;;1.77;0.90;;;5.10;90.50;;;;;;4970483;28;20058;-80
2021/12/02 05:42:59;;;;;;;1.00;0.80;;;5.00;90.50;;;;;;4970014;28;20483;-80
2021/12/02 05:45:25;;;;;;;4.80;0.88;;;5.00;90.50;;;;;;4973979;28;20113;-80
2021/12/02 05:47:50;;;;;;;1.33;0.80;;;4.90;90.50;;;;;;4956593;28;20039;-78
2021/12/02 05:50:16;;;;;;;0.50;0.50;;;4.90;90.60;;;;;;4943305;28;20172;-79
2021/12/02 05:52:41;;;;;;;0.88;0.57;;;4.80;90.60;;;;;;4960573;28;20036;-79
2021/12/02 05:55:07;;;;;;;3.58;0.50;;;4.80;90.60;;;;;;4980806;28;20061;-80
2021/12/02 05:57:33;;;;;;;0.90;0.38;;;4.80;90.60;;;;;;4964298;28;20038;-80
2021/12/02 05:59:59;;;;;;;0.63;0.63;;;4.70;90.60;;;;;;4974047;28;20424;-79
2021/12/02 06:02:24;;;;;;;0.82;0.40;;;4.70;90.60;;;;;;4967629;28;20027;-78
2021/12/02 06:04:53;;;;;;;0.88;0.50;;;4.70;90.70;;;;;;4976998;28;20435;-80
2021/12/02 06:07:19;;;;;;;0.30;0.30;;;4.60;90.70;;;;;;4976577;28;20034;-79
2021/12/02 06:09:45;;;;;;;1.45;0.40;;;4.60;90.70;;;;;;4977801;28;20123;-80
2021/12/02 06:12:11;;;;;;;0.30;0.30;;;4.60;90.70;;;;;;4950833;28;20678;-78
2021/12/02 06:14:36;;;;;;;0.35;0.20;;;4.60;90.70;;;;;;4946332;28;20070;-80
2021/12/02 06:17:02;;;;;;;0.57;0.32;;;4.50;90.70;;;;;;4962932;28;20100;-79
2021/12/02 06:19:28;;;;;;;1.30;0.40;;;4.50;90.70;;;;;;4953464;28;20062;-78
2021/12/02 06:21:55;;;;;;;1.10;0.40;;;4.50;90.70;;;;;;4960275;28;20038;-80
2021/12/02 06:24:27;;;;;;;0.43;0.38;;;4.50;90.70;;;;;;4957696;28;20648;-79
2021/12/02 06:26:53;;;;;;;0.38;0.30;;;4.40;90.70;;;;;;4963471;28;20038;-79
2021/12/02 06:29:18;;;;;;;1.98;0.60;;;4.40;90.80;;;;;;4981090;28;20583;-78
2021/12/02 06:31:44;;;;;;;1.75;0.40;;;4.40;90.80;;;;;;4959630;28;20034;-80
2021/12/02 06:34:09;;;;;;;0.82;0.40;;;4.40;90.80;;;;;;4965689;28;20802;-78
2021/12/02 06:36:36;;;;;;;0.40;0.40;;;4.40;90.80;;;;;;4967781;28;20486;-79
2021/12/02 06:39:02;;;;;;;2.60;0.55;;;4.40;90.80;;;;;;4961474;28;20032;-80
2021/12/02 06:41:27;;;;;;;0.30;0.30;;;4.30;90.80;;;;;;4961552;28;20100;-80
2021/12/02 06:43:53;;;;;;;0.63;0.47;;;4.30;90.80;;;;;;4966593;28;20030;-80
2021/12/02 06:46:19;;;;;;;0.43;0.40;;;4.30;90.80;;;;;;4950031;28;20140;-80
2021/12/02 06:48:46;;;;;;;1.55;0.60;;;4.20;90.80;;;;;;4993378;28;20562;-79
2021/12/02 06:51:13;;;;;;;2.10;0.50;;;4.20;90.70;;;;;;4965030;28;20046;-78
2021/12/02 06:53:39;;;;;;;0.57;0.55;;;4.20;90.80;;;;;;4975422;28;20108;-79
2021/12/02 06:56:05;;;;;;;1.95;0.55;;;4.10;90.80;;;;;;4962536;28;20041;-78
2021/12/02 06:58:30;;;;;;;0.65;0.60;;;4.10;90.80;;;;;;4977636;28;20030;-79
2021/12/02 07:00:56;;;;;;;1.13;0.50;;;4.10;90.80;;;;;;4988381;28;20030;-79
2021/12/02 07:03:21;;;;;;;1.00;0.40;;;4.10;90.90;;;;;;4935715;28;20049;-79
2021/12/02 07:05:47;;;;;;;0.40;0.38;;;4.10;90.90;;;;;;4972923;28;20041;-79
2021/12/02 07:08:13;;;;;;;0.57;0.38;;;4.10;90.90;;;;;;4993441;28;20068;-79
2021/12/02 07:10:39;;;;;;;2.83;0.50;;;4.10;90.90;;;;;;4963861;28;20128;-79
2021/12/02 07:13:05;;;;;;;3.10;0.40;;;4.10;90.90;;;;;;4964587;28;20707;-79
2021/12/02 07:15:32;;;;;;;0.93;0.50;;;4.10;90.90;;;;;;4967514;28;20424;-79
2021/12/02 07:18:02;;;;;;;1.75;0.40;;;4.10;90.90;;;;;;4981350;28;20659;-80
2021/12/02 07:20:34;;;;;;;1.83;0.60;;;4.10;90.90;;;;;;4980809;28;20120;-81
2021/12/02 07:22:59;;;;;;;0.47;0.30;;;4.10;90.90;;;;;;4983212;28;20496;-80
2021/12/02 07:25:26;;;;;;;0.98;0.65;;;4.10;90.90;;;;;;4951086;28;20026;-81
2021/12/02 07:27:51;;;;;;;1.58;0.50;;;4.10;91.00;;;;;;4968116;28;20053;-81
2021/12/02 07:30:17;;;;;;;0.73;0.55;;;4.10;91.00;;;;;;4965874;28;20730;-80
2021/12/02 07:32:44;;;;;;;1.08;0.70;;;4.10;91.20;;;;;;5002007;28;20034;-80
2021/12/02 07:35:12;;;;;;;0.88;0.57;;;4.10;91.00;;;;;;4955030;28;20095;-80
2021/12/02 07:37:43;;;;;;;1.95;0.65;;;4.10;91.00;;;;;;4965781;28;20046;-80
2021/12/02 07:40:09;;;;;;;1.10;0.63;;;4.10;91.00;;;;;;4965855;28;20038;-80
2021/12/02 07:42:34;;;;;;;1.00;1.00;;;4.10;91.00;;;;;;4997753;28;20330;-81
2021/12/02 07:45:00;;;;;;;3.58;1.10;;;4.10;91.00;;;;;;4986900;28;20069;-81
2021/12/02 07:47:25;;;;;;;0.98;0.63;;;4.10;91.00;;;;;;4983453;28;20030;-81
2021/12/02 07:49:51;;;;;;;4.53;2.90;;;4.10;91.00;;;;;;4963994;28;20120;-81
2021/12/02 07:52:21;;;;;;;7.43;4.22;;;4.10;91.40;;;;;;4955601;28;20033;-81
2021/12/02 07:54:48;;;;;;;5.75;2.83;;;4.10;91.10;;;;;;4984114;28;20194;-80
2021/12/02 07:57:14;;;;;;;5.90;3.40;;;4.10;91.10;;;;;;4983746;28;20034;-80
2021/12/02 07:59:40;;;;;;;6.70;3.65;;;4.20;91.10;;;;;;4958974;28;20041;-81
2021/12/02 08:02:05;;;;;;;5.28;2.63;;;4.20;91.20;;;;;;4971776;28;20074;-79
2021/12/02 08:04:31;;;;;;;2.33;1.20;;;4.20;91.10;;;;;;4945916;28;20042;-80
2021/12/02 08:06:56;;;;;;;3.85;1.52;;;4.20;91.20;;;;;;4977678;28;20113;-80
2021/12/02 08:09:22;;;;;;;8.57;4.60;;;4.30;91.20;;;;;;4972403;28;20038;-81
2021/12/02 08:11:47;;;;;;;8.88;4.93;;;4.30;91.20;;;;;;4966597;28;20072;-81
2021/12/02 08:14:16;;;;;;;17.60;14.45;;;4.30;91.20;;;;;;5001545;28;20056;-79
2021/12/02 08:16:42;;;;;;;4.00;3.53;;;4.30;91.20;;;;;;5001416;28;20139;-81
2021/12/02 08:19:07;;;;;;;4.00;3.22;;;4.40;91.30;;;;;;4995612;28;20041;-80
2021/12/02 08:21:33;;;;;;;5.38;2.63;;;4.40;91.20;;;;;;4972687;28;20048;-80
2021/12/02 08:23:58;;;;;;;4.10;2.65;;;4.50;91.30;;;;;;4999777;28;20059;-80
2021/12/02 08:26:24;;;;;;;7.90;4.30;;;4.50;91.30;;;;;;4996884;28;20239;-79
2021/12/02 08:28:49;;;;;;;5.38;3.58;;;4.50;91.20;;;;;;4986670;28;20081;-80
2021/12/02 08:31:16;;;;;;;2.92;2.35;;;4.50;91.20;;;;;;4971495;28;20060;-80
2021/12/02 08:33:42;;;;;;;3.10;1.38;;;4.50;91.20;;;;;;4967604;28;20046;-79
2021/12/02 08:36:07;;;;;;;4.65;1.95;;;4.60;91.30;;;;;;4999885;28;20049;-78
2021/12/02 08:38:35;;;;;;;3.17;1.70;;;4.50;91.20;;;;;;4996951;28;20068;-78
2021/12/02 08:41:00;;;;;;;4.10;2.17;;;4.50;91.20;;;;;;4980221;28;20042;-79
2021/12/02 08:43:26;;;;;;;4.40;3.70;;;4.60;91.20;;;;;;4971997;28;20435;-79
2021/12/02 08:45:52;;;;;;;10.55;5.30;;;4.60;91.30;;;;;;4951239;28;20499;-79
2021/12/02 08:48:17;;;;;;;7.13;3.50;;;4.60;91.30;;;;;;4960615;28;20130;-79
2021/12/02 08:50:44;;;;;;;7.63;3.53;;;4.60;91.30;;;;;;4964411;28;20061;-80
2021/12/02 08:53:10;;;;;;;5.75;3.22;;;4.70;91.30;;;;;;4948312;28;20038;-79
2021/12/02 08:55:36;;;;;;;7.30;3.25;;;4.70;91.30;;;;;;4954859;28;20031;-78
2021/12/02 08:58:03;;;;;;;3.40;1.65;;;4.70;91.30;;;;;;4968949;28;20222;-78
2021/12/02 09:00:33;;;;;;;8.02;4.63;;;4.70;91.30;;;;;;4999113;28;20066;-78
2021/12/02 09:02:59;;;;;;;2.38;1.70;;;4.70;91.20;;;;;;4971378;28;20031;-79
2021/12/02 09:05:24;;;;;;;3.10;1.92;;;4.70;91.20;;;;;;4933264;28;20532;-78
2021/12/02 09:07:50;;;;;;;7.57;4.18;;;4.70;91.20;;;;;;4945780;28;20710;-78
2021/12/02 09:10:16;;;;;;;6.60;3.85;;;4.70;91.20;;;;;;4973989;28;20035;-79
2021/12/02 09:12:42;;;;;;;1.90;1.20;;;4.70;91.20;;;;;;4963246;28;20038;-80
2021/12/02 09:15:08;;;;;;;3.47;2.22;;;4.80;91.30;;;;;;4953137;28;20041;-79
2021/12/02 09:17:35;;;;;;;3.40;2.05;;;4.70;91.20;;;;;;4933394;28;20118;-79
2021/12/02 09:20:01;;;;;;;4.40;2.30;;;4.80;91.30;;;;;;4917127;28;20417;-79
2021/12/02 09:22:26;;;;;;;3.97;2.15;;;4.80;91.30;;;;;;4975744;28;20117;-80
2021/12/02 09:24:52;;;;;;;3.45;1.55;;;4.80;91.20;;;;;;4956074;28;20037;-80
2021/12/02 09:27:17;;;;;;;5.72;3.33;;;4.80;91.20;;;;;;4934624;28;20037;-80
2021/12/02 09:29:43;;;;;;;2.78;1.75;;;4.80;91.20;;;;;;4947053;28;20026;-80
2021/12/02 09:32:08;;;;;;;1.92;0.75;;;4.80;91.20;;;;;;4968442;28;20042;-79
2021/12/02 09:34:34;;;;;;;1.27;0.95;;;4.90;91.30;;;;;;4976283;28;20042;-79
2021/12/02 09:36:59;;;;;;;1.23;0.80;;;4.90;91.20;;;;;;4948015;28;20100;-79
2021/12/02 09:39:29;;;;;;;2.47;1.10;;;4.90;91.20;;;;;;4952257;28;20034;-79
2021/12/02 09:41:55;;;;;;;0.73;0.73;;;4.90;91.20;;;;;;4925745;28;20046;-80
2021/12/02 09:44:20;;;;;;;1.92;1.30;;;4.90;91.20;;;;;;4959980;28;20042;-80
2021/12/02 09:46:46;;;;;;;1.63;1.33;;;4.90;91.20;;;;;;4977813;28;20040;-80
2021/12/02 09:49:11;;;;;;;2.78;1.38;;;5.00;91.20;;;;;;4986770;28;20049;-79
2021/12/02 09:51:48;;;;;;;2.78;1.98;;;5.00;91.20;;;;;;4968764;28;20046;-80
2021/12/02 09:54:17;;;;;;;4.55;3.38;;;5.00;91.20;;;;;;4967256;28;20088;-79
2021/12/02 09:56:46;;;;;;;2.63;2.10;;;5.10;91.20;;;;;;4985122;28;20030;-79
2021/12/02 09:59:24;;;;;;;3.17;1.95;;;5.10;91.30;;;;;;4982913;28;20041;-80
2021/12/02 10:01:58;;;;;;;4.75;2.05;;;5.10;91.20;;;;;;4976463;28;20060;-80
2021/12/02 10:04:25;;;;;;;8.98;3.35;;;5.10;91.20;;;;;;4984116;28;20061;-79
2021/12/02 10:07:07;;;;;;;10.40;3.33;;;5.10;91.20;;;;;;4956142;28;20703;-78
2021/12/02 10:09:49;;;;;;;30.92;9.77;;;5.20;91.20;;;;;;4984012;28;20041;-79
2021/12/02 10:12:20;;;;;;;68.90;20.52;;;5.20;91.20;;;;;;4963267;28;20081;-79
2021/12/02 10:14:50;;;;;;;13.90;5.18;;;5.20;91.20;;;;;;4987570;28;20053;-78
2021/12/02 10:17:22;;;;;;;89.90;24.98;;;5.20;91.10;;;;;;4998209;28;20034;-79
2021/12/02 10:20:35;;;;;;;52.63;15.60;;;5.20;91.10;;;;;;4967006;28;20555;-78
2021/12/02 10:23:23;;;;;;;44.72;13.13;;;5.30;91.20;;;;;;4971497;28;20026;-78
2021/12/02 10:25:58;;;;;;;7.47;2.72;;;5.30;91.20;;;;;;5003240;28;20602;-78
2021/12/02 10:28:24;;;;;;;15.15;5.60;;;5.40;91.10;;;;;;4999355;28;20044;-79
2021/12/02 10:30:55;;;;;;;160.63;53.90;;;5.40;91.10;;;;;;4981870;28;20034;-79
2021/12/02 10:33:40;;;;;;;14.55;6.88;;;5.40;91.10;;;;;;4997442;28;20099;-79
2021/12/02 10:36:08;;;;;;;60.35;22.77;;;5.40;91.10;;;;;;4993521;28;20041;-80
2021/12/02 10:38:44;;;;;;;8.35;4.70;;;5.40;91.10;;;;;;4994381;28;20042;-79
2021/12/02 10:41:17;;;;;;;15.60;6.03;;;5.50;91.10;;;;;;4996030;28;20064;-79
2021/12/02 10:44:06;;;;;;;12.93;6.20;;;5.50;91.10;;;;;;4989218;28;20034;-78
2021/12/02 10:46:33;;;;;;;23.38;9.18;;;5.60;91.10;;;;;;4993667;28;20175;-78
2021/12/02 10:48:59;;;;;;;8.70;4.63;;;5.60;91.10;;;;;;4985843;28;20037;-78
2021/12/02 10:51:54;;;;;;;15.00;6.57;;;5.60;91.00;;;;;;4986241;28;20053;-79
2021/12/02 10:54:22;;;;;;;6.90;3.75;;;5.60;91.00;;;;;;5002030;28;20099;-78
2021/12/02 10:56:56;;;;;;;12.23;7.32;;;5.70;91.00;;;;;;4957899;28;20124;-79
2021/12/02 10:59:33;;;;;;;5.47;3.03;;;5.70;91.00;;;;;;5010046;28;20046;-79
2021/12/02 11:02:00;;;;;;;12.68;6.88;;;5.70;90.90;;;;;;4996248;28;20041;-79
2021/12/02 11:04:26;;;;;;;39.05;16.77;;;5.70;90.90;;;;;;5000627;28;20037;-78
2021/12/02 11:07:00;;;;;;;2.60;1.80;;;5.70;90.90;;;;;;4962561;28;20486;-79
2021/12/02 11:09:30;;;;;;;15.20;6.10;;;5.80;90.90;;;;;;4986356;28;20036;-78
2021/12/02 11:12:09;;;;;;;7.38;4.25;;;5.70;90.80;;;;;;4989542;28;20033;-79
2021/12/02 11:14:35;;;;;;;19.13;7.63;;;5.80;90.80;;;;;;5001184;28;20045;-80
2021/12/02 11:17:30;;;;;;;11.13;5.05;;;5.80;90.90;;;;;;4986980;28;20033;-79
2021/12/02 11:19:56;;;;;;;2.78;1.15;;;5.80;90.80;;;;;;4996746;28;20033;-79
2021/12/02 11:22:22;;;;;;;5.20;3.17;;;5.80;90.80;;;;;;4977527;28;20038;-79
2021/12/02 11:24:48;;;;;;;12.75;6.70;;;5.80;90.80;;;;;;4982908;28;20030;-79
2021/12/02 11:27:15;;;;;;;4.57;2.42;;;5.80;90.70;;;;;;4991802;28;20116;-79
2021/12/02 11:29:51;;;;;;;3.80;1.67;;;5.80;90.80;;;;;;4997727;28;20038;-78
2021/12/02 11:32:24;;;;;;;2.45;1.85;;;5.90;90.80;;;;;;4976264;28;20112;-80
2021/12/02 11:35:15;;;;;;;4.65;1.27;;;5.90;90.70;;;;;;4959923;28;20033;-79
2021/12/02 11:37:43;;;;;;;2.55;1.83;;;5.90;90.70;;;;;;5018401;28;20037;-78
2021/12/02 11:40:12;;;;;;;3.20;1.77;;;5.90;90.70;;;;;;4970924;28;20068;-80
2021/12/02 11:42:38;;;;;;;2.20;1.85;;;5.90;90.60;;;;;;4979057;28;20050;-79
2021/12/02 11:45:05;;;;;;;5.68;3.28;;;5.90;90.60;;;;;;4987729;28;20068;-78
2021/12/02 11:47:30;;;;;;;2.38;2.10;;;5.90;90.60;;;;;;4965468;28;20030;-79
2021/12/02 11:49:56;;;;;;;2.53;1.95;;;5.90;90.70;;;;;;4977941;28;20044;-79
2021/12/02 11:52:21;;;;;;;1.70;1.60;;;6.00;90.70;;;;;;4980400;28;20034;-79
2021/12/02 11:54:47;;;;;;;2.72;1.80;;;6.00;90.70;;;;;;5001367;28;21734;-79
2021/12/02 11:57:12;;;;;;;4.15;2.20;;;6.00;90.70;;;;;;4984032;28;20030;-79
2021/12/02 11:59:38;;;;;;;2.40;1.40;;;6.00;90.60;;;;;;4971894;28;20044;-79
2021/12/02 12:02:04;;;;;;;8.48;4.00;;;6.10;90.60;;;;;;4997216;28;20112;-79
2021/12/02 12:04:29;;;;;;;3.47;2.53;;;6.00;90.50;;;;;;4980349;28;20637;-79
2021/12/02 12:07:15;;;;;;;2.03;1.67;;;6.10;90.60;;;;;;4958704;28;20038;-78
2021/12/02 12:09:41;;;;;;;3.30;1.98;;;6.10;90.50;;;;;;4986573;28;20232;-79
2021/12/02 12:12:06;;;;;;;1.50;1.00;;;6.10;90.50;;;;;;4981028;28;20676;-79
2021/12/02 12:14:36;;;;;;;1.83;1.13;;;6.10;90.50;;;;;;4990549;28;20084;-78
2021/12/02 12:17:09;;;;;;;1.38;0.90;;;6.10;90.50;;;;;;4995339;28;20091;-79
2021/12/02 12:19:47;;;;;;;2.03;1.05;;;6.10;90.40;;;;;;4939023;28;20046;-79
2021/12/02 12:22:28;;;;;;;2.55;1.25;;;6.10;90.40;;;;;;4969224;28;20037;-79
2021/12/02 12:24:55;;;;;;;2.60;1.48;;;6.10;90.30;;;;;;5001919;28;20056;-78
2021/12/02 12:27:27;;;;;;;1.50;1.20;;;6.10;90.40;;;;;;4981010;28;20567;-79
2021/12/02 12:30:18;;;;;;;2.15;1.48;;;6.00;90.30;;;;;;4983853;28;20040;-79
2021/12/02 12:33:07;;;;;;;2.40;1.70;;;6.00;90.30;;;;;;4998518;28;20034;-79
2021/12/02 12:36:22;;;;;;;2.80;1.63;;;6.00;90.30;;;;;;5009435;28;20033;-79
2021/12/02 12:38:27;;;;;;;1.75;1.13;;;5.90;90.30;;;;;;4982345;28;20107;-79
2021/12/02 12:40:57;;;;;;;1.48;1.08;;;6.00;90.40;;;;;;5014361;28;20120;-78
2021/12/02 12:43:28;;;;;;;2.75;1.50;;;5.90;90.30;;;;;;5018162;28;20041;-79
2021/12/02 12:46:20;;;;;;;4.25;2.17;;;5.90;90.30;;;;;;4984185;28;20046;-78
2021/12/02 12:48:46;;;;;;;;;;;5.90;90.20;;;;;;4957799;28;20046;-78
2021/12/02 12:51:29;;;;;;;3.17;1.80;;;5.90;90.30;;;;;;4977183;28;20366;-79
2021/12/02 12:53:55;;;;;;;7.18;2.28;;;5.90;90.30;;;;;;4959681;28;20034;-78
2021/12/02 12:56:30;;;;;;;3.17;2.03;;;5.90;90.30;;;;;;4971161;28;20037;-78
2021/12/02 12:59:17;;;;;;;2.88;1.83;;;5.90;90.20;;;;;;4970693;28;20031;-78
2021/12/02 13:01:59;;;;;;;1.85;1.33;;;5.90;90.20;;;;;;4967708;28;22951;-78
2021/12/02 13:04:26;;;;;;;3.80;1.60;;;5.90;90.20;;;;;;4924305;28;20034;-79
2021/12/02 13:07:13;;;;;;;3.95;1.25;;;5.90;90.20;;;;;;4980682;28;20117;-79
2021/12/02 13:09:58;;;;;;;4.47;2.05;;;5.90;90.10;;;;;;4946314;28;20035;-79
2021/12/02 13:12:36;;;;;;;4.25;1.77;;;5.90;90.10;;;;;;4979662;28;20109;-78
2021/12/02 13:15:03;;;;;;;1.58;1.42;;;5.90;90.10;;;;;;4972943;28;20038;-78
2021/12/02 13:17:43;;;;;;;3.30;1.75;;;5.90;90.50;;;;;;4968996;28;20046;-78
2021/12/02 13:20:19;;;;;;;2.35;1.75;;;5.90;90.10;;;;;;4974114;28;20034;-79
2021/12/02 13:22:48;;;;;;;5.18;2.65;;;5.90;90.10;;;;;;4946581;28;20118;-78